Terminal Aerodrome Forecast
Issued by NWS

Home | Current Version | Previous Version | Graphics & Text | Print | Product List | Glossary On
Versions: 1 2 3 4 5 6 7 8 9 10 11 12 13 14 15 16 17 18 19 20
000
FTUS43 KOAX 221700 RRA
TAFCDR
TAF
KCDR 221742Z 2218/2318 09010KT P6SM SCT090
     FM230100 13010KT P6SM VCTS SCT080CB
     FM230500 14007KT P6SM SCT150=

USA.gov is the U.S. government's official web portal to all federal, state and local government web resources and services.